sensor_id;sensor_type;location;lat;lon;timestamp;temperature;humidity
55365;DHT22;41245;45.384;20.390;2023-06-24T00:02:16;512.10;2048.00
55365;DHT22;41245;45.384;20.390;2023-06-24T00:04:42;512.00;2048.00
55365;DHT22;41245;45.384;20.390;2023-06-24T00:07:08;512.00;2048.00
55365;DHT22;41245;45.384;20.390;2023-06-24T00:09:33;512.10;2048.00
55365;DHT22;41245;45.384;20.390;2023-06-24T00:11:59;512.10;2048.00
55365;DHT22;41245;45.384;20.390;2023-06-24T00:14:26;512.10;2048.00
55365;DHT22;41245;45.384;20.390;2023-06-24T00:16:53;512.10;2048.00
55365;DHT22;41245;45.384;20.390;2023-06-24T00:19:21;512.10;2048.00
55365;DHT22;41245;45.384;20.390;2023-06-24T00:21:48;512.00;2048.00
55365;DHT22;41245;45.384;20.390;2023-06-24T00:24:17;512.10;2048.00
55365;DHT22;41245;45.384;20.390;2023-06-24T00:26:43;512.10;2048.00
55365;DHT22;41245;45.384;20.390;2023-06-24T00:29:08;512.20;1996.80
55365;DHT22;41245;45.384;20.390;2023-06-24T00:31:34;512.20;2380.80
55365;DHT22;41245;45.384;20.390;2023-06-24T00:34:00;512.30;153.60
55365;DHT22;41245;45.384;20.390;2023-06-24T00:36:25;512.30;332.80
55365;DHT22;41245;45.384;20.390;2023-06-24T00:38:52;512.20;128.00
55365;DHT22;41245;45.384;20.390;2023-06-24T00:41:18;512.30;128.00
55365;DHT22;41245;45.384;20.390;2023-06-24T00:43:45;512.40;128.00
55365;DHT22;41245;45.384;20.390;2023-06-24T00:46:11;512.40;128.00
55365;DHT22;41245;45.384;20.390;2023-06-24T00:48:39;512.40;563.20
55365;DHT22;41245;45.384;20.390;2023-06-24T00:51:05;512.40;128.00
55365;DHT22;41245;45.384;20.390;2023-06-24T00:53:30;512.50;128.00
55365;DHT22;41245;45.384;20.390;2023-06-24T00:55:58;512.40;128.00
55365;DHT22;41245;45.384;20.390;2023-06-24T00:58:29;512.30;128.00
55365;DHT22;41245;45.384;20.390;2023-06-24T01:00:56;512.30;128.00
55365;DHT22;41245;45.384;20.390;2023-06-24T01:03:26;512.30;128.00
55365;DHT22;41245;45.384;20.390;2023-06-24T01:05:53;512.40;128.00
55365;DHT22;41245;45.384;20.390;2023-06-24T01:08:19;512.40;128.00
55365;DHT22;41245;45.384;20.390;2023-06-24T01:10:49;512.50;128.00
55365;DHT22;41245;45.384;20.390;2023-06-24T01:13:15;512.50;128.00
55365;DHT22;41245;45.384;20.390;2023-06-24T01:15:41;512.50;128.00
55365;DHT22;41245;45.384;20.390;2023-06-24T01:18:39;512.40;128.00
55365;DHT22;41245;45.384;20.390;2023-06-24T01:29:31;512.30;128.00
55365;DHT22;41245;45.384;20.390;2023-06-24T01:32:06;512.40;128.00
55365;DHT22;41245;45.384;20.390;2023-06-24T01:34:36;512.40;128.00
55365;DHT22;41245;45.384;20.390;2023-06-24T01:37:27;512.40;128.00
55365;DHT22;41245;45.384;20.390;2023-06-24T01:40:20;512.20;128.00
55365;DHT22;41245;45.384;20.390;2023-06-24T01:42:49;512.20;128.00
55365;DHT22;41245;45.384;20.390;2023-06-24T01:45:19;512.10;128.00
55365;DHT22;41245;45.384;20.390;2023-06-24T01:47:48;512.10;128.00
55365;DHT22;41245;45.384;20.390;2023-06-24T01:50:16;512.10;128.00
55365;DHT22;41245;45.384;20.390;2023-06-24T01:52:45;487.30;128.00
55365;DHT22;41245;45.384;20.390;2023-06-24T01:55:18;512.00;128.00
55365;DHT22;41245;45.384;20.390;2023-06-24T01:57:45;512.10;128.00
55365;DHT22;41245;45.384;20.390;2023-06-24T02:00:12;512.10;128.00
55365;DHT22;41245;45.384;20.390;2023-06-24T02:02:38;512.10;128.00
55365;DHT22;41245;45.384;20.390;2023-06-24T02:05:06;512.00;128.00
55365;DHT22;41245;45.384;20.390;2023-06-24T02:07:33;512.00;128.00
55365;DHT22;41245;45.384;20.390;2023-06-24T02:10:00;512.10;128.00
55365;DHT22;41245;45.384;20.390;2023-06-24T02:12:26;512.10;128.00
55365;DHT22;41245;45.384;20.390;2023-06-24T02:14:55;512.10;128.00
55365;DHT22;41245;45.384;20.390;2023-06-24T02:17:23;512.10;128.00
55365;DHT22;41245;45.384;20.390;2023-06-24T02:19:50;512.10;128.00
55365;DHT22;41245;45.384;20.390;2023-06-24T02:22:17;512.20;128.00
55365;DHT22;41245;45.384;20.390;2023-06-24T02:24:44;512.30;128.00
55365;DHT22;41245;45.384;20.390;2023-06-24T02:27:11;512.30;128.00
55365;DHT22;41245;45.384;20.390;2023-06-24T02:29:39;512.30;128.00
55365;DHT22;41245;45.384;20.390;2023-06-24T02:32:06;512.30;128.00
55365;DHT22;41245;45.384;20.390;2023-06-24T02:34:32;512.40;128.00
55365;DHT22;41245;45.384;20.390;2023-06-24T02:36:58;512.30;128.00
55365;DHT22;41245;45.384;20.390;2023-06-24T02:39:24;512.40;128.00
55365;DHT22;41245;45.384;20.390;2023-06-24T02:41:49;512.50;128.00
55365;DHT22;41245;45.384;20.390;2023-06-24T02:44:16;512.50;128.00
55365;DHT22;41245;45.384;20.390;2023-06-24T02:46:43;512.60;128.00
55365;DHT22;41245;45.384;20.390;2023-06-24T02:49:12;512.90;128.00
55365;DHT22;41245;45.384;20.390;2023-06-24T03:47:55;538.30;128.00
55365;DHT22;41245;45.384;20.390;2023-06-24T03:50:20;538.20;128.00
55365;DHT22;41245;45.384;20.390;2023-06-24T03:52:46;538.40;128.00
55365;DHT22;41245;45.384;20.390;2023-06-24T03:55:12;589.00;128.00
55365;DHT22;41245;45.384;20.390;2023-06-24T03:57:38;564.10;128.00
55365;DHT22;41245;45.384;20.390;2023-06-24T04:00:04;589.50;128.00
55365;DHT22;41245;45.384;20.390;2023-06-24T04:02:42;614.60;128.00
55365;DHT22;41245;45.384;20.390;2023-06-24T04:05:09;615.30;128.00
55365;DHT22;41245;45.384;20.390;2023-06-24T04:39:18;717.50;179.20
55365;DHT22;41245;45.384;20.390;2023-06-24T05:28:00;768.50;358.40
55365;DHT22;41245;45.384;20.390;2023-06-24T05:30:26;768.50;256.00
55365;DHT22;41245;45.384;20.390;2023-06-24T05:32:52;768.50;204.80
55365;DHT22;41245;45.384;20.390;2023-06-24T05:35:17;768.90;230.40
55365;DHT22;41245;45.384;20.390;2023-06-24T05:37:43;793.90;563.20
55365;DHT22;41245;45.384;20.390;2023-06-24T05:40:09;794.10;512.00
55365;DHT22;41245;45.384;20.390;2023-06-24T05:42:35;819.50;1024.00
55365;DHT22;41245;45.384;20.390;2023-06-24T05:45:01;819.80;844.80
55365;DHT22;41245;45.384;20.390;2023-06-24T05:47:26;845.00;870.40
55365;DHT22;41245;45.384;20.390;2023-06-24T05:49:52;845.50;972.80
55365;DHT22;41245;45.384;20.390;2023-06-24T05:52:18;870.50;1126.40
55365;DHT22;41245;45.384;20.390;2023-06-24T05:54:43;870.40;1280.00
55365;DHT22;41245;45.384;20.390;2023-06-24T05:57:09;870.80;1126.40
55365;DHT22;41245;45.384;20.390;2023-06-24T05:59:36;871.30;1203.20
55365;DHT22;41245;45.384;20.390;2023-06-24T06:02:01;896.10;1228.80
55365;DHT22;41245;45.384;20.390;2023-06-24T06:04:28;871.30;1177.60
55365;DHT22;41245;45.384;20.390;2023-06-24T06:06:53;896.90;1408.00
55365;DHT22;41245;45.384;20.390;2023-06-24T06:09:20;921.90;1587.20
55365;DHT22;41245;45.384;20.390;2023-06-24T06:11:46;922.40;1510.40
55365;DHT22;41245;45.384;20.390;2023-06-24T06:14:11;922.00;1536.00
55365;DHT22;41245;45.384;20.390;2023-06-24T06:16:37;922.40;1587.20
55365;DHT22;41245;45.384;20.390;2023-06-24T06:19:03;922.30;1536.00
55365;DHT22;41245;45.384;20.390;2023-06-24T06:21:28;896.30;1305.60
55365;DHT22;41245;45.384;20.390;2023-06-24T06:23:54;870.70;1203.20
55365;DHT22;41245;45.384;20.390;2023-06-24T06:26:20;845.70;1100.80
55365;DHT22;41245;45.384;20.390;2023-06-24T06:28:46;845.60;1203.20
55365;DHT22;41245;45.384;20.390;2023-06-24T06:31:13;819.80;921.60
55365;DHT22;41245;45.384;20.390;2023-06-24T06:33:39;844.90;1049.60
55365;DHT22;41245;45.384;20.390;2023-06-24T06:36:04;845.60;1305.60
55365;DHT22;41245;45.384;20.390;2023-06-24T06:38:32;845.20;1280.00
55365;DHT22;41245;45.384;20.390;2023-06-24T06:40:59;844.80;1305.60
55365;DHT22;41245;45.384;20.390;2023-06-24T06:43:24;794.10;1126.40
55365;DHT22;41245;45.384;20.390;2023-06-24T06:45:50;768.50;1024.00
55365;DHT22;41245;45.384;20.390;2023-06-24T06:48:16;742.80;665.60
55365;DHT22;41245;45.384;20.390;2023-06-24T06:50:41;742.50;537.60
55365;DHT22;41245;45.384;20.390;2023-06-24T06:53:07;717.40;512.00
55365;DHT22;41245;45.384;20.390;2023-06-24T06:55:33;717.40;486.40
55365;DHT22;41245;45.384;20.390;2023-06-24T06:57:58;716.80;409.60
55365;DHT22;41245;45.384;20.390;2023-06-24T07:00:24;716.80;409.60
55365;DHT22;41245;45.384;20.390;2023-06-24T07:02:50;716.90;332.80
55365;DHT22;41245;45.384;20.390;2023-06-24T07:05:16;716.90;179.20
55365;DHT22;41245;45.384;20.390;2023-06-24T07:07:41;692.00;153.60
55365;DHT22;41245;45.384;20.390;2023-06-24T07:10:10;691.40;332.80
55365;DHT22;41245;45.384;20.390;2023-06-24T07:12:35;691.50;153.60
55365;DHT22;41245;45.384;20.390;2023-06-24T07:15:01;691.50;281.60
55365;DHT22;41245;45.384;20.390;2023-06-24T07:17:27;666.40;153.60
55365;DHT22;41245;45.384;20.390;2023-06-24T07:19:53;691.20;204.80
55365;DHT22;41245;45.384;20.390;2023-06-24T07:22:18;691.30;179.20
55365;DHT22;41245;45.384;20.390;2023-06-24T07:24:44;691.60;307.20
55365;DHT22;41245;45.384;20.390;2023-06-24T07:27:10;691.50;281.60
55365;DHT22;41245;45.384;20.390;2023-06-24T07:29:35;691.80;204.80
55365;DHT22;41245;45.384;20.390;2023-06-24T07:32:01;691.80;358.40
55365;DHT22;41245;45.384;20.390;2023-06-24T07:34:28;691.60;179.20
55365;DHT22;41245;45.384;20.390;2023-06-24T07:36:54;691.70;230.40
55365;DHT22;41245;45.384;20.390;2023-06-24T07:39:20;691.80;230.40
55365;DHT22;41245;45.384;20.390;2023-06-24T07:41:45;691.70;153.60
55365;DHT22;41245;45.384;20.390;2023-06-24T07:44:11;691.80;204.80
55365;DHT22;41245;45.384;20.390;2023-06-24T07:46:37;691.80;230.40
55365;DHT22;41245;45.384;20.390;2023-06-24T07:49:03;691.70;256.00
55365;DHT22;41245;45.384;20.390;2023-06-24T07:51:29;691.70;153.60
55365;DHT22;41245;45.384;20.390;2023-06-24T07:53:54;691.70;153.60
55365;DHT22;41245;45.384;20.390;2023-06-24T07:56:20;691.70;153.60
55365;DHT22;41245;45.384;20.390;2023-06-24T07:58:46;691.50;153.60
55365;DHT22;41245;45.384;20.390;2023-06-24T08:01:11;692.00;153.60
55365;DHT22;41245;45.384;20.390;2023-06-24T08:03:37;716.90;358.40
55365;DHT22;41245;45.384;20.390;2023-06-24T08:06:03;716.80;256.00
55365;DHT22;41245;45.384;20.390;2023-06-24T08:08:29;691.80;153.60
55365;DHT22;41245;45.384;20.390;2023-06-24T08:10:55;691.60;153.60
55365;DHT22;41245;45.384;20.390;2023-06-24T08:13:21;691.30;153.60
55365;DHT22;41245;45.384;20.390;2023-06-24T08:15:46;691.60;153.60
55365;DHT22;41245;45.384;20.390;2023-06-24T08:18:12;692.00;204.80
55365;DHT22;41245;45.384;20.390;2023-06-24T08:20:38;692.10;332.80
55365;DHT22;41245;45.384;20.390;2023-06-24T08:23:04;692.10;281.60
55365;DHT22;41245;45.384;20.390;2023-06-24T08:25:29;692.00;281.60
55365;DHT22;41245;45.384;20.390;2023-06-24T08:27:55;717.00;179.20
55365;DHT22;41245;45.384;20.390;2023-06-24T08:30:21;716.80;384.00
55365;DHT22;41245;45.384;20.390;2023-06-24T08:32:47;716.90;332.80
55365;DHT22;41245;45.384;20.390;2023-06-24T08:35:13;717.00;179.20
55365;DHT22;41245;45.384;20.390;2023-06-24T08:37:39;717.00;204.80
55365;DHT22;41245;45.384;20.390;2023-06-24T08:40:05;717.40;230.40
55365;DHT22;41245;45.384;20.390;2023-06-24T08:42:31;717.60;256.00
55365;DHT22;41245;45.384;20.390;2023-06-24T08:44:57;717.60;256.00
55365;DHT22;41245;45.384;20.390;2023-06-24T08:47:24;742.50;512.00
55365;DHT22;41245;45.384;20.390;2023-06-24T08:49:53;742.70;460.80
55365;DHT22;41245;45.384;20.390;2023-06-24T08:52:21;742.70;358.40
55365;DHT22;41245;45.384;20.390;2023-06-24T08:54:51;743.00;563.20
55365;DHT22;41245;45.384;20.390;2023-06-24T08:57:21;742.80;537.60
55365;DHT22;41245;45.384;20.390;2023-06-24T08:59:47;742.70;281.60
55365;DHT22;41245;45.384;20.390;2023-06-24T09:02:12;717.60;307.20
55365;DHT22;41245;45.384;20.390;2023-06-24T09:04:40;742.50;358.40
55365;DHT22;41245;45.384;20.390;2023-06-24T09:07:06;717.60;358.40
55365;DHT22;41245;45.384;20.390;2023-06-24T09:09:32;742.50;384.00
55365;DHT22;41245;45.384;20.390;2023-06-24T09:12:01;742.70;307.20
55365;DHT22;41245;45.384;20.390;2023-06-24T09:14:29;743.10;742.40
55365;DHT22;41245;45.384;20.390;2023-06-24T09:16:59;768.00;716.80
55365;DHT22;41245;45.384;20.390;2023-06-24T09:19:32;768.00;537.60
55365;DHT22;41245;45.384;20.390;2023-06-24T09:22:09;768.50;691.20
55365;DHT22;41245;45.384;20.390;2023-06-24T09:24:42;793.60;947.20
55365;DHT22;41245;45.384;20.390;2023-06-24T09:27:08;768.80;896.00
55365;DHT22;41245;45.384;20.390;2023-06-24T09:29:35;768.60;998.40
55365;DHT22;41245;45.384;20.390;2023-06-24T09:32:04;768.90;947.20
55365;DHT22;41245;45.384;20.390;2023-06-24T09:34:31;768.30;1024.00
55365;DHT22;41245;45.384;20.390;2023-06-24T09:36:58;768.00;793.60
55365;DHT22;41245;45.384;20.390;2023-06-24T09:39:26;768.00;819.20
55365;DHT22;41245;45.384;20.390;2023-06-24T09:41:55;768.00;563.20
55365;DHT22;41245;45.384;20.390;2023-06-24T09:44:23;743.00;486.40
55365;DHT22;41245;45.384;20.390;2023-06-24T09:46:49;768.30;793.60
55365;DHT22;41245;45.384;20.390;2023-06-24T09:49:14;743.10;409.60
55365;DHT22;41245;45.384;20.390;2023-06-24T09:51:45;743.30;614.40
55365;DHT22;41245;45.384;20.390;2023-06-24T09:54:13;793.60;1049.60
55365;DHT22;41245;45.384;20.390;2023-06-24T09:57:00;793.90;998.40
55365;DHT22;41245;45.384;20.390;2023-06-24T09:59:27;793.90;1100.80
55365;DHT22;41245;45.384;20.390;2023-06-24T10:11:43;819.20;947.20
55365;DHT22;41245;45.384;20.390;2023-06-24T10:14:09;794.30;972.80
55365;DHT22;41245;45.384;20.390;2023-06-24T10:16:35;794.10;870.40
55365;DHT22;41245;45.384;20.390;2023-06-24T10:19:02;794.40;921.60
55365;DHT22;41245;45.384;20.390;2023-06-24T10:21:47;794.50;1024.00
55365;DHT22;41245;45.384;20.390;2023-06-24T10:24:13;819.20;1126.40
55365;DHT22;41245;45.384;20.390;2023-06-24T10:26:52;794.10;896.00
55365;DHT22;41245;45.384;20.390;2023-06-24T10:29:18;794.10;896.00
55365;DHT22;41245;45.384;20.390;2023-06-24T10:31:55;793.60;1126.40
55365;DHT22;41245;45.384;20.390;2023-06-24T10:34:41;793.60;819.20
55365;DHT22;41245;45.384;20.390;2023-06-24T10:37:22;768.60;896.00
55365;DHT22;41245;45.384;20.390;2023-06-24T10:42:33;768.50;896.00
55365;DHT22;41245;45.384;20.390;2023-06-24T10:47:37;768.90;998.40
55365;DHT22;41245;45.384;20.390;2023-06-24T10:50:08;794.20;1049.60
55365;DHT22;41245;45.384;20.390;2023-06-24T10:52:44;794.40;1126.40
55365;DHT22;41245;45.384;20.390;2023-06-24T10:55:13;794.30;1075.20
55365;DHT22;41245;45.384;20.390;2023-06-24T10:57:38;794.30;1049.60
55365;DHT22;41245;45.384;20.390;2023-06-24T11:00:07;794.30;947.20
55365;DHT22;41245;45.384;20.390;2023-06-24T11:02:33;793.70;896.00
55365;DHT22;41245;45.384;20.390;2023-06-24T11:05:01;768.80;819.20
55365;DHT22;41245;45.384;20.390;2023-06-24T11:07:32;768.50;896.00
55365;DHT22;41245;45.384;20.390;2023-06-24T11:12:34;768.80;972.80
55365;DHT22;41245;45.384;20.390;2023-06-24T11:15:10;768.40;819.20
55365;DHT22;41245;45.384;20.390;2023-06-24T11:17:37;768.50;819.20
55365;DHT22;41245;45.384;20.390;2023-06-24T11:20:13;768.50;819.20
55365;DHT22;41245;45.384;20.390;2023-06-24T11:22:43;768.50;793.60
55365;DHT22;41245;45.384;20.390;2023-06-24T11:25:17;768.80;870.40
55365;DHT22;41245;45.384;20.390;2023-06-24T11:27:43;768.80;844.80
55365;DHT22;41245;45.384;20.390;2023-06-24T11:30:09;768.50;844.80
55365;DHT22;41245;45.384;20.390;2023-06-24T11:32:40;768.30;793.60
55365;DHT22;41245;45.384;20.390;2023-06-24T11:35:09;768.00;768.00
55365;DHT22;41245;45.384;20.390;2023-06-24T11:37:35;743.10;716.80
55365;DHT22;41245;45.384;20.390;2023-06-24T11:40:05;742.90;640.00
55365;DHT22;41245;45.384;20.390;2023-06-24T11:42:38;742.50;691.20
55365;DHT22;41245;45.384;20.390;2023-06-24T11:45:10;742.50;435.20
55365;DHT22;41245;45.384;20.390;2023-06-24T11:47:37;717.50;307.20
55365;DHT22;41245;45.384;20.390;2023-06-24T11:50:05;717.50;307.20
55365;DHT22;41245;45.384;20.390;2023-06-24T11:52:41;717.30;281.60
55365;DHT22;41245;45.384;20.390;2023-06-24T11:55:24;717.20;256.00
55365;DHT22;41245;45.384;20.390;2023-06-24T11:58:08;717.20;256.00
55365;DHT22;41245;45.384;20.390;2023-06-24T12:00:39;717.10;435.20
55365;DHT22;41245;45.384;20.390;2023-06-24T12:03:09;716.80;230.40
55365;DHT22;41245;45.384;20.390;2023-06-24T12:05:36;692.10;435.20
55365;DHT22;41245;45.384;20.390;2023-06-24T12:08:07;692.00;179.20
55365;DHT22;41245;45.384;20.390;2023-06-24T12:10:34;691.80;358.40
55365;DHT22;41245;45.384;20.390;2023-06-24T12:13:04;691.70;307.20
55365;DHT22;41245;45.384;20.390;2023-06-24T12:15:39;691.50;307.20
55365;DHT22;41245;45.384;20.390;2023-06-24T12:18:05;691.40;384.00
55365;DHT22;41245;45.384;20.390;2023-06-24T12:20:31;691.40;153.60
55365;DHT22;41245;45.384;20.390;2023-06-24T12:22:58;691.30;153.60
55365;DHT22;41245;45.384;20.390;2023-06-24T12:25:24;691.30;153.60
55365;DHT22;41245;45.384;20.390;2023-06-24T12:27:50;691.40;256.00
55365;DHT22;41245;45.384;20.390;2023-06-24T12:30:16;691.40;256.00
55365;DHT22;41245;45.384;20.390;2023-06-24T12:32:42;691.50;153.60
55365;DHT22;41245;45.384;20.390;2023-06-24T12:35:09;691.60;204.80
55365;DHT22;41245;45.384;20.390;2023-06-24T12:37:36;691.60;281.60
55365;DHT22;41245;45.384;20.390;2023-06-24T12:40:03;691.60;358.40
55365;DHT22;41245;45.384;20.390;2023-06-24T12:42:29;691.80;332.80
55365;DHT22;41245;45.384;20.390;2023-06-24T12:44:55;691.80;384.00
55365;DHT22;41245;45.384;20.390;2023-06-24T12:47:21;691.70;384.00
55365;DHT22;41245;45.384;20.390;2023-06-24T12:49:47;691.70;332.80
55365;DHT22;41245;45.384;20.390;2023-06-24T12:52:13;691.70;307.20
55365;DHT22;41245;45.384;20.390;2023-06-24T12:54:40;692.10;230.40
55365;DHT22;41245;45.384;20.390;2023-06-24T12:57:06;716.90;332.80
55365;DHT22;41245;45.384;20.390;2023-06-24T12:59:31;716.90;281.60
55365;DHT22;41245;45.384;20.390;2023-06-24T13:01:57;716.90;281.60
55365;DHT22;41245;45.384;20.390;2023-06-24T13:04:23;717.10;230.40
55365;DHT22;41245;45.384;20.390;2023-06-24T13:06:53;717.10;230.40
55365;DHT22;41245;45.384;20.390;2023-06-24T13:09:19;717.10;256.00
55365;DHT22;41245;45.384;20.390;2023-06-24T13:11:44;717.20;230.40
55365;DHT22;41245;45.384;20.390;2023-06-24T13:14:10;717.50;256.00
55365;DHT22;41245;45.384;20.390;2023-06-24T13:16:36;717.50;307.20
55365;DHT22;41245;45.384;20.390;2023-06-24T13:19:02;717.60;537.60
55365;DHT22;41245;45.384;20.390;2023-06-24T13:21:28;717.70;512.00
55365;DHT22;41245;45.384;20.390;2023-06-24T13:23:54;742.50;384.00
55365;DHT22;41245;45.384;20.390;2023-06-24T13:26:19;742.50;512.00
55365;DHT22;41245;45.384;20.390;2023-06-24T13:28:45;742.70;537.60
55365;DHT22;41245;45.384;20.390;2023-06-24T13:31:11;742.90;819.20
55365;DHT22;41245;45.384;20.390;2023-06-24T13:33:37;743.20;870.40
55365;DHT22;41245;45.384;20.390;2023-06-24T13:36:04;768.30;1024.00
55365;DHT22;41245;45.384;20.390;2023-06-24T13:38:32;768.40;742.40
55365;DHT22;41245;45.384;20.390;2023-06-24T13:40:59;768.90;768.00
55365;DHT22;41245;45.384;20.390;2023-06-24T13:43:24;793.60;844.80
55365;DHT22;41245;45.384;20.390;2023-06-24T13:45:51;793.90;819.20
55365;DHT22;41245;45.384;20.390;2023-06-24T13:48:17;794.00;921.60
55365;DHT22;41245;45.384;20.390;2023-06-24T13:50:43;794.30;998.40
55365;DHT22;41245;45.384;20.390;2023-06-24T13:53:08;794.40;1100.80
55365;DHT22;41245;45.384;20.390;2023-06-24T13:55:34;819.40;1049.60
55365;DHT22;41245;45.384;20.390;2023-06-24T13:58:02;819.20;998.40
55365;DHT22;41245;45.384;20.390;2023-06-24T14:00:27;794.50;998.40
55365;DHT22;41245;45.384;20.390;2023-06-24T14:02:53;794.20;998.40
55365;DHT22;41245;45.384;20.390;2023-06-24T14:05:20;819.20;1049.60
55365;DHT22;41245;45.384;20.390;2023-06-24T14:07:45;819.20;947.20
55365;DHT22;41245;45.384;20.390;2023-06-24T14:10:13;794.40;1049.60
55365;DHT22;41245;45.384;20.390;2023-06-24T14:12:38;794.40;1100.80
55365;DHT22;41245;45.384;20.390;2023-06-24T14:15:08;794.00;896.00
55365;DHT22;41245;45.384;20.390;2023-06-24T14:17:34;794.20;972.80
55365;DHT22;41245;45.384;20.390;2023-06-24T14:20:00;794.10;921.60
55365;DHT22;41245;45.384;20.390;2023-06-24T14:22:25;794.30;921.60
55365;DHT22;41245;45.384;20.390;2023-06-24T14:24:51;794.30;947.20
55365;DHT22;41245;45.384;20.390;2023-06-24T14:27:17;794.30;947.20
55365;DHT22;41245;45.384;20.390;2023-06-24T14:29:43;794.10;947.20
55365;DHT22;41245;45.384;20.390;2023-06-24T14:32:08;794.10;870.40
55365;DHT22;41245;45.384;20.390;2023-06-24T14:34:34;794.10;896.00
55365;DHT22;41245;45.384;20.390;2023-06-24T14:37:00;794.10;921.60
55365;DHT22;41245;45.384;20.390;2023-06-24T14:39:25;794.20;947.20
55365;DHT22;41245;45.384;20.390;2023-06-24T14:41:51;794.20;998.40
55365;DHT22;41245;45.384;20.390;2023-06-24T14:44:17;794.30;1126.40
55365;DHT22;41245;45.384;20.390;2023-06-24T14:46:42;794.30;947.20
55365;DHT22;41245;45.384;20.390;2023-06-24T14:49:08;794.20;1024.00
55365;DHT22;41245;45.384;20.390;2023-06-24T14:51:34;794.20;921.60
55365;DHT22;41245;45.384;20.390;2023-06-24T14:53:59;794.10;921.60
55365;DHT22;41245;45.384;20.390;2023-06-24T14:56:25;794.20;896.00
55365;DHT22;41245;45.384;20.390;2023-06-24T14:58:51;794.20;1152.00
55365;DHT22;41245;45.384;20.390;2023-06-24T15:01:17;794.20;1203.20
55365;DHT22;41245;45.384;20.390;2023-06-24T15:03:42;794.00;1152.00
55365;DHT22;41245;45.384;20.390;2023-06-24T15:06:08;794.00;1100.80
55365;DHT22;41245;45.384;20.390;2023-06-24T15:08:34;793.90;1152.00
55365;DHT22;41245;45.384;20.390;2023-06-24T15:10:59;793.60;1049.60
55365;DHT22;41245;45.384;20.390;2023-06-24T15:13:25;793.60;1024.00
55365;DHT22;41245;45.384;20.390;2023-06-24T15:15:51;768.90;1049.60
55365;DHT22;41245;45.384;20.390;2023-06-24T15:18:21;768.90;819.20
55365;DHT22;41245;45.384;20.390;2023-06-24T15:20:46;768.90;1024.00
55365;DHT22;41245;45.384;20.390;2023-06-24T15:23:12;768.90;844.80
55365;DHT22;41245;45.384;20.390;2023-06-24T15:25:38;768.90;819.20
55365;DHT22;41245;45.384;20.390;2023-06-24T15:28:04;793.60;1024.00
55365;DHT22;41245;45.384;20.390;2023-06-24T15:30:29;793.60;870.40
55365;DHT22;41245;45.384;20.390;2023-06-24T15:32:55;768.80;947.20
55365;DHT22;41245;45.384;20.390;2023-06-24T15:35:21;768.70;1100.80
55365;DHT22;41245;45.384;20.390;2023-06-24T15:37:46;768.30;1075.20
55365;DHT22;41245;45.384;20.390;2023-06-24T15:40:12;768.10;870.40
55365;DHT22;41245;45.384;20.390;2023-06-24T15:42:38;743.30;921.60
55365;DHT22;41245;45.384;20.390;2023-06-24T15:45:05;743.30;1024.00
55365;DHT22;41245;45.384;20.390;2023-06-24T15:47:31;743.20;998.40
55365;DHT22;41245;45.384;20.390;2023-06-24T15:49:56;743.00;870.40
55365;DHT22;41245;45.384;20.390;2023-06-24T15:52:23;743.00;870.40
55365;DHT22;41245;45.384;20.390;2023-06-24T15:54:48;743.10;972.80
55365;DHT22;41245;45.384;20.390;2023-06-24T15:57:14;743.30;972.80
55365;DHT22;41245;45.384;20.390;2023-06-24T15:59:40;768.00;998.40
55365;DHT22;41245;45.384;20.390;2023-06-24T16:02:06;768.30;1024.00
55365;DHT22;41245;45.384;20.390;2023-06-24T16:04:32;768.10;998.40
55365;DHT22;41245;45.384;20.390;2023-06-24T16:06:57;768.20;1049.60
55365;DHT22;41245;45.384;20.390;2023-06-24T16:09:23;768.10;947.20
55365;DHT22;41245;45.384;20.390;2023-06-24T16:11:49;768.00;972.80
55365;DHT22;41245;45.384;20.390;2023-06-24T16:14:14;743.30;972.80
55365;DHT22;41245;45.384;20.390;2023-06-24T16:16:40;768.00;844.80
55365;DHT22;41245;45.384;20.390;2023-06-24T16:19:06;768.00;819.20
55365;DHT22;41245;45.384;20.390;2023-06-24T16:21:31;768.00;921.60
55365;DHT22;41245;45.384;20.390;2023-06-24T16:23:58;768.00;768.00
55365;DHT22;41245;45.384;20.390;2023-06-24T16:26:24;743.30;870.40
55365;DHT22;41245;45.384;20.390;2023-06-24T16:28:50;743.20;742.40
55365;DHT22;41245;45.384;20.390;2023-06-24T16:31:16;742.90;947.20
55365;DHT22;41245;45.384;20.390;2023-06-24T16:33:42;742.80;947.20
55365;DHT22;41245;45.384;20.390;2023-06-24T16:36:08;742.70;588.80
55365;DHT22;41245;45.384;20.390;2023-06-24T16:38:34;742.80;640.00
55365;DHT22;41245;45.384;20.390;2023-06-24T16:40:59;742.60;844.80
55365;DHT22;41245;45.384;20.390;2023-06-24T16:43:26;742.50;460.80
55365;DHT22;41245;45.384;20.390;2023-06-24T16:45:52;742.50;486.40
55365;DHT22;41245;45.384;20.390;2023-06-24T16:48:17;742.50;460.80
55365;DHT22;41245;45.384;20.390;2023-06-24T16:50:43;742.50;460.80
55365;DHT22;41245;45.384;20.390;2023-06-24T16:53:09;742.40;819.20
55365;DHT22;41245;45.384;20.390;2023-06-24T16:55:35;742.50;793.60
55365;DHT22;41245;45.384;20.390;2023-06-24T16:58:02;742.40;640.00
55365;DHT22;41245;45.384;20.390;2023-06-24T17:00:28;717.60;665.60
55365;DHT22;41245;45.384;20.390;2023-06-24T17:02:53;717.60;512.00
55365;DHT22;41245;45.384;20.390;2023-06-24T17:05:19;717.60;563.20
55365;DHT22;41245;45.384;20.390;2023-06-24T17:07:45;717.60;563.20
55365;DHT22;41245;45.384;20.390;2023-06-24T17:10:11;717.60;588.80
55365;DHT22;41245;45.384;20.390;2023-06-24T17:12:36;717.50;614.40
55365;DHT22;41245;45.384;20.390;2023-06-24T17:15:02;717.40;588.80
55365;DHT22;41245;45.384;20.390;2023-06-24T17:17:30;717.30;537.60
55365;DHT22;41245;45.384;20.390;2023-06-24T17:19:56;717.20;460.80
55365;DHT22;41245;45.384;20.390;2023-06-24T17:22:21;717.00;512.00
55365;DHT22;41245;45.384;20.390;2023-06-24T17:24:47;716.90;486.40
55365;DHT22;41245;45.384;20.390;2023-06-24T17:27:13;692.10;460.80